Time;durP1;ratioP1;P1;durP2;ratioP2;P2;SDS_P1;SDS_P2;PMS_P1;PMS_P2;Temp;Humidity;BMP_temperature;BMP_pressure;BME280_temperature;BME280_humidity;BME280_pressure;Samples;Min_cycle;Max_cycle;Signal;HPM_P1;HPM_P2
2023/03/31 00:02:00;;;;;;;31.02;6.05;;;9.80;99.90;;;;;;5074561;28;21280;-56
2023/03/31 00:04:27;;;;;;;32.42;5.07;;;9.80;99.90;;;;;;5073662;28;20039;-56
2023/03/31 00:06:53;;;;;;;37.15;5.72;;;10.00;99.90;;;;;;5073003;28;20102;-56
2023/03/31 00:09:20;;;;;;;43.88;5.47;;;9.90;99.90;;;;;;5073188;28;20080;-56
2023/03/31 00:11:50;;;;;;;32.55;4.40;;;10.00;99.90;;;;;;5072590;28;20047;-56
2023/03/31 00:14:18;;;;;;;33.13;6.72;;;9.90;99.90;;;;;;5072736;28;20055;-56
2023/03/31 00:16:44;;;;;;;33.40;5.82;;;10.10;99.90;;;;;;5072690;28;20044;-56
2023/03/31 00:19:16;;;;;;;31.48;5.35;;;9.80;99.90;;;;;;5072975;28;20059;-56
2023/03/31 00:21:46;;;;;;;31.80;4.95;;;9.80;99.90;;;;;;5073561;28;20047;-56
2023/03/31 00:24:14;;;;;;;36.63;6.57;;;9.60;99.90;;;;;;5072699;28;20245;-56
2023/03/31 00:26:40;;;;;;;44.10;6.28;;;9.80;99.90;;;;;;5072196;28;20526;-56
2023/03/31 00:29:07;;;;;;;32.13;5.00;;;10.00;99.90;;;;;;5071389;28;20123;-56
2023/03/31 00:31:34;;;;;;;32.88;5.60;;;9.80;99.90;;;;;;5072139;28;20408;-57
2023/03/31 00:34:00;;;;;;;31.85;5.40;;;9.50;99.90;;;;;;5071514;28;20043;-57
2023/03/31 00:36:26;;;;;;;40.60;6.47;;;9.50;99.90;;;;;;5072354;28;20032;-56
2023/03/31 00:39:03;;;;;;;34.40;6.95;;;9.40;99.90;;;;;;5070411;28;20048;-57
2023/03/31 00:41:29;;;;;;;28.05;5.13;;;10.20;99.90;;;;;;5072621;28;20131;-56
2023/03/31 00:44:05;;;;;;;36.30;5.97;;;9.30;99.90;;;;;;5071790;28;20419;-56
2023/03/31 00:46:36;;;;;;;42.25;6.00;;;10.70;99.90;;;;;;5072811;28;20287;-57
2023/03/31 00:49:01;;;;;;;30.52;5.10;;;9.20;99.90;;;;;;5072418;28;20055;-56
2023/03/31 00:51:32;;;;;;;35.95;6.05;;;9.50;99.90;;;;;;5070384;28;20040;-56
2023/03/31 00:54:03;;;;;;;37.03;5.60;;;9.30;99.90;;;;;;5071917;28;20043;-57
2023/03/31 00:56:35;;;;;;;32.28;5.38;;;9.30;99.90;;;;;;5071584;28;20044;-56
2023/03/31 00:59:02;;;;;;;41.70;5.75;;;9.30;99.90;;;;;;5071436;28;20049;-56
2023/03/31 01:01:29;;;;;;;34.08;5.00;;;9.70;99.90;;;;;;5072835;28;20071;-56
2023/03/31 01:03:56;;;;;;;42.22;6.22;;;9.20;99.90;;;;;;5071552;28;20040;-55
2023/03/31 01:06:24;;;;;;;34.10;6.22;;;9.30;99.90;;;;;;5072844;28;20040;-57
2023/03/31 01:08:51;;;;;;;37.90;7.15;;;9.00;99.90;;;;;;5070557;28;20118;-56
2023/03/31 01:11:20;;;;;;;28.40;5.53;;;8.80;99.90;;;;;;5071216;28;20407;-56
2023/03/31 01:13:49;;;;;;;30.63;5.40;;;9.30;99.90;;;;;;5071648;28;20113;-56
2023/03/31 01:16:17;;;;;;;29.27;4.65;;;9.20;99.90;;;;;;5072466;28;20075;-56
2023/03/31 01:18:45;;;;;;;40.08;5.65;;;9.00;99.90;;;;;;5075765;28;20131;-56
2023/03/31 01:21:32;;;;;;;32.80;5.30;;;8.90;99.90;;;;;;5076265;28;21062;-56
2023/03/31 01:24:04;;;;;;;34.50;5.80;;;9.10;99.90;;;;;;5077263;28;20063;-56
2023/03/31 01:26:48;;;;;;;30.95;5.80;;;9.00;99.90;;;;;;5078079;28;20170;-56
2023/03/31 01:29:16;;;;;;;26.73;5.25;;;8.80;99.90;;;;;;5076051;28;20036;-56
2023/03/31 01:31:54;;;;;;;25.77;5.75;;;8.80;99.90;;;;;;5076525;28;20083;-56
2023/03/31 01:34:41;;;;;;;33.55;6.75;;;8.90;99.90;;;;;;5076936;28;20043;-56
2023/03/31 01:37:40;;;;;;;31.00;4.68;;;9.10;99.90;;;;;;5075801;28;20111;-56
2023/03/31 01:40:24;;;;;;;29.38;4.60;;;8.60;99.90;;;;;;5074754;28;20036;-56
2023/03/31 01:43:03;;;;;;;35.95;5.20;;;8.70;99.90;;;;;;5075173;28;20047;-56
2023/03/31 01:45:53;;;;;;;29.83;5.55;;;8.80;99.90;;;;;;5074260;28;20105;-56
2023/03/31 01:48:25;;;;;;;31.75;5.53;;;8.50;99.90;;;;;;5074282;28;20048;-56
2023/03/31 01:51:01;;;;;;;29.95;4.53;;;8.50;99.90;;;;;;5074165;28;20134;-56
2023/03/31 01:53:37;;;;;;;28.65;5.35;;;8.60;99.90;;;;;;5073875;28;20151;-56
2023/03/31 01:56:05;;;;;;;33.45;5.43;;;8.60;99.90;;;;;;5075119;28;20134;-56
2023/03/31 01:58:47;;;;;;;27.80;5.18;;;8.60;99.90;;;;;;5074271;28;20474;-56
2023/03/31 02:01:28;;;;;;;39.13;6.33;;;8.60;99.90;;;;;;5074224;28;20059;-56
2023/03/31 02:04:23;;;;;;;35.22;5.70;;;8.50;99.90;;;;;;5076018;28;20054;-56
2023/03/31 02:07:03;;;;;;;28.73;5.00;;;8.60;99.90;;;;;;5075381;28;20048;-56
2023/03/31 02:09:33;;;;;;;32.67;4.70;;;8.50;99.90;;;;;;5074822;28;20479;-57
2023/03/31 02:12:04;;;;;;;21.40;3.70;;;8.50;99.90;;;;;;5072844;28;20048;-56
2023/03/31 02:14:33;;;;;;;35.33;6.18;;;8.50;99.90;;;;;;5074805;28;20694;-56
2023/03/31 02:17:01;;;;;;;30.23;5.47;;;8.60;99.90;;;;;;5074415;28;21014;-56
2023/03/31 02:19:38;;;;;;;31.38;6.28;;;8.30;99.90;;;;;;5073603;28;20048;-56
2023/03/31 02:22:07;;;;;;;25.60;4.25;;;8.60;99.90;;;;;;5073706;28;20040;-56
2023/03/31 02:24:35;;;;;;;35.05;5.25;;;8.70;99.90;;;;;;5074029;28;20036;-57
2023/03/31 02:27:10;;;;;;;27.85;5.50;;;8.70;99.90;;;;;;5073968;28;20048;-56
2023/03/31 02:29:36;;;;;;;34.90;6.60;;;8.80;99.90;;;;;;5073611;28;20124;-56
2023/03/31 02:32:19;;;;;;;28.30;4.95;;;8.70;99.90;;;;;;5074346;28;20052;-56
2023/03/31 02:34:45;;;;;;;34.63;5.00;;;8.70;99.90;;;;;;5074386;28;20044;-56
2023/03/31 02:37:11;;;;;;;38.97;6.45;;;8.70;99.90;;;;;;5073501;28;20032;-56
2023/03/31 02:39:40;;;;;;;24.95;4.20;;;8.90;99.90;;;;;;5073700;28;20036;-57
2023/03/31 02:42:06;;;;;;;25.83;4.55;;;8.70;99.90;;;;;;5075100;28;20048;-57
2023/03/31 02:44:34;;;;;;;27.42;4.97;;;9.00;99.90;;;;;;5074953;28;20048;-56
2023/03/31 02:47:02;;;;;;;33.65;5.15;;;8.80;99.90;;;;;;5075797;28;20059;-56
2023/03/31 02:49:28;;;;;;;26.75;4.32;;;8.80;99.90;;;;;;5074162;28;20436;-56
2023/03/31 02:52:15;;;;;;;29.73;5.00;;;8.70;99.90;;;;;;5074598;28;20126;-56
2023/03/31 02:55:06;;;;;;;34.15;6.28;;;8.80;99.90;;;;;;5074149;28;20067;-56
2023/03/31 02:57:47;;;;;;;22.73;3.72;;;8.70;99.90;;;;;;5074641;28;20043;-56
2023/03/31 03:00:51;;;;;;;28.58;5.20;;;8.80;99.90;;;;;;5074530;28;20400;-57
2023/03/31 03:03:46;;;;;;;25.15;4.00;;;8.90;99.90;;;;;;5054660;28;20049;-57
2023/03/31 03:06:41;;;;;;;29.65;4.57;;;8.80;99.90;;;;;;5074174;28;20649;-57
2023/03/31 03:09:12;;;;;;;35.22;5.22;;;8.70;99.90;;;;;;5073633;28;20516;-56
2023/03/31 03:12:03;;;;;;;26.33;5.15;;;8.70;99.90;;;;;;5073166;28;20520;-56
2023/03/31 03:14:56;;;;;;;31.55;5.22;;;8.60;99.90;;;;;;5073735;28;20097;-56
2023/03/31 03:17:32;;;;;;;23.00;4.80;;;8.50;99.90;;;;;;5051769;28;20357;-56
2023/03/31 03:20:01;;;;;;;26.75;5.63;;;8.70;99.90;;;;;;5073810;28;20453;-57
2023/03/31 03:22:26;;;;;;;24.35;4.07;;;9.70;99.90;;;;;;5073334;28;20514;-56
2023/03/31 03:24:52;;;;;;;23.15;4.47;;;8.60;99.90;;;;;;5073567;28;20039;-57
2023/03/31 03:27:21;;;;;;;24.90;4.25;;;8.50;99.90;;;;;;5072778;28;20074;-56
2023/03/31 03:29:47;;;;;;;21.73;4.47;;;8.70;99.90;;;;;;5072252;28;20052;-57
2023/03/31 03:32:13;;;;;;;25.38;4.90;;;8.70;99.90;;;;;;5072913;28;20556;-57
2023/03/31 03:34:39;;;;;;;20.00;3.95;;;8.70;99.90;;;;;;5073477;28;20036;-57
2023/03/31 03:37:05;;;;;;;21.05;3.83;;;8.90;99.90;;;;;;5073533;28;20251;-57
2023/03/31 03:39:31;;;;;;;21.90;3.30;;;8.70;99.90;;;;;;5071660;28;20358;-57
2023/03/31 03:41:57;;;;;;;21.48;4.55;;;8.50;99.90;;;;;;5072350;28;20040;-57
2023/03/31 03:44:22;;;;;;;25.63;4.05;;;8.60;99.90;;;;;;5073327;28;21190;-57
2023/03/31 03:46:48;;;;;;;27.52;5.28;;;8.50;99.90;;;;;;5073021;28;20489;-58
2023/03/31 03:49:14;;;;;;;20.30;3.60;;;8.60;99.90;;;;;;5072122;28;20512;-57
2023/03/31 03:51:39;;;;;;;20.15;5.40;;;8.60;99.90;;;;;;5072537;28;20032;-57
2023/03/31 03:54:05;;;;;;;25.52;4.93;;;8.70;99.90;;;;;;5073893;28;20094;-57
2023/03/31 03:56:31;;;;;;;23.52;4.90;;;8.80;99.90;;;;;;5072876;28;20044;-57
2023/03/31 03:58:57;;;;;;;24.20;4.55;;;8.90;99.90;;;;;;5072610;28;20046;-57
2023/03/31 04:01:22;;;;;;;27.77;5.55;;;8.90;99.90;;;;;;5072844;28;20036;-56
2023/03/31 04:03:48;;;;;;;19.63;4.70;;;10.40;99.90;;;;;;5072876;28;20508;-57
2023/03/31 04:06:14;;;;;;;23.30;5.72;;;9.10;99.90;;;;;;5071186;28;20916;-57
2023/03/31 04:08:40;;;;;;;24.25;5.45;;;9.00;99.90;;;;;;5070688;28;20043;-57
2023/03/31 04:11:17;;;;;;;23.30;5.70;;;9.00;99.90;;;;;;5070065;28;20039;-56
2023/03/31 04:13:43;;;;;;;26.17;5.78;;;9.00;99.90;;;;;;5070095;28;20097;-56
2023/03/31 04:16:10;;;;;;;21.38;6.20;;;8.90;99.90;;;;;;5070457;28;20068;-56
2023/03/31 04:18:41;;;;;;;21.60;5.45;;;9.20;99.90;;;;;;5070067;28;20054;-57
2023/03/31 04:21:14;;;;;;;20.10;5.38;;;9.00;99.90;;;;;;5071834;28;20055;-57
2023/03/31 04:23:47;;;;;;;17.73;5.47;;;9.10;99.90;;;;;;5072432;28;20038;-57
2023/03/31 04:26:14;;;;;;;19.38;5.65;;;9.00;99.90;;;;;;5072408;28;20040;-56
2023/03/31 04:28:49;;;;;;;23.45;6.35;;;9.20;99.90;;;;;;5073461;28;20042;-57
2023/03/31 04:31:23;;;;;;;19.88;6.22;;;9.00;99.90;;;;;;5072046;28;20085;-55
2023/03/31 04:33:50;;;;;;;21.02;6.30;;;9.10;99.90;;;;;;5073235;28;20089;-57
2023/03/31 04:36:19;;;;;;;27.83;7.43;;;9.00;99.90;;;;;;5072751;28;20447;-57
2023/03/31 04:38:53;;;;;;;19.63;6.40;;;9.20;99.90;;;;;;5073245;28;20042;-57
2023/03/31 04:41:20;;;;;;;22.38;6.63;;;9.00;99.90;;;;;;5072514;28;21142;-57
2023/03/31 04:43:46;;;;;;;22.73;7.35;;;9.10;99.90;;;;;;5072557;28;20428;-57
2023/03/31 04:46:12;;;;;;;21.05;8.48;;;9.10;99.90;;;;;;5071771;28;20063;-56
2023/03/31 04:48:38;;;;;;;18.42;6.90;;;10.60;99.90;;;;;;5070808;28;20055;-57
2023/03/31 04:51:05;;;;;;;24.23;8.13;;;9.00;99.90;;;;;;5072706;28;20036;-57
2023/03/31 04:53:30;;;;;;;20.92;7.70;;;9.60;99.90;;;;;;5071239;28;20188;-56
2023/03/31 04:55:56;;;;;;;26.45;8.05;;;9.20;99.90;;;;;;5069096;28;20040;-56
2023/03/31 04:58:22;;;;;;;26.00;8.75;;;8.90;99.90;;;;;;5070790;28;21023;-56
2023/03/31 05:00:48;;;;;;;22.85;8.43;;;9.10;99.90;;;;;;5071758;28;20047;-56
2023/03/31 05:03:13;;;;;;;33.80;8.68;;;9.10;99.90;;;;;;5071002;28;20036;-56
2023/03/31 05:05:39;;;;;;;18.10;8.00;;;9.10;99.90;;;;;;5071528;28;20101;-57
2023/03/31 05:08:05;;;;;;;25.58;8.65;;;9.20;99.90;;;;;;5071087;28;20058;-57
2023/03/31 05:10:31;;;;;;;22.27;8.75;;;9.20;99.90;;;;;;5070935;28;20051;-57
2023/03/31 05:12:57;;;;;;;22.10;8.07;;;9.20;99.90;;;;;;5070857;28;20123;-56
2023/03/31 05:15:23;;;;;;;20.08;8.45;;;9.10;99.90;;;;;;5071374;28;20294;-57
2023/03/31 05:17:49;;;;;;;21.77;8.80;;;9.10;99.90;;;;;;5071448;28;20508;-57
2023/03/31 05:20:15;;;;;;;21.65;8.93;;;9.30;99.90;;;;;;5069807;28;20207;-56
2023/03/31 05:22:41;;;;;;;24.02;8.82;;;9.20;99.90;;;;;;5069853;28;20148;-57
2023/03/31 05:25:08;;;;;;;20.55;8.75;;;9.20;99.90;;;;;;5070888;28;20043;-56
2023/03/31 05:27:35;;;;;;;25.50;9.25;;;9.30;99.90;;;;;;5071120;28;20131;-57
2023/03/31 05:30:02;;;;;;;20.73;8.30;;;9.10;99.90;;;;;;5070125;28;20039;-56
2023/03/31 05:32:28;;;;;;;23.45;8.40;;;10.00;99.90;;;;;;5070914;28;20073;-56
2023/03/31 05:34:56;;;;;;;21.33;7.95;;;9.30;99.90;;;;;;5071178;28;20048;-57
2023/03/31 05:37:24;;;;;;;23.27;8.05;;;9.30;99.90;;;;;;5070888;28;20048;-60
2023/03/31 05:39:50;;;;;;;24.60;8.75;;;9.30;99.90;;;;;;5070996;28;20040;-56
2023/03/31 05:42:16;;;;;;;21.13;8.30;;;9.20;99.90;;;;;;5069598;28;20036;-56
2023/03/31 05:44:41;;;;;;;17.88;8.18;;;9.20;99.90;;;;;;5070408;28;20089;-57
2023/03/31 05:47:07;;;;;;;19.92;7.85;;;9.30;99.90;;;;;;5070512;28;20029;-57
2023/03/31 05:49:33;;;;;;;20.73;7.00;;;9.30;99.90;;;;;;5070837;28;20078;-57
2023/03/31 05:51:58;;;;;;;18.13;7.00;;;9.50;99.90;;;;;;5070516;28;20648;-57
2023/03/31 05:54:25;;;;;;;19.15;7.25;;;9.30;99.90;;;;;;5071627;28;20521;-56
2023/03/31 05:56:51;;;;;;;14.85;6.88;;;9.20;99.90;;;;;;5069317;28;20401;-57
2023/03/31 05:59:17;;;;;;;18.20;6.47;;;9.20;99.90;;;;;;5071459;28;20028;-56
2023/03/31 06:01:43;;;;;;;18.73;6.85;;;9.40;99.90;;;;;;5072047;28;20040;-56
2023/03/31 06:04:09;;;;;;;17.92;6.50;;;9.30;99.90;;;;;;5076216;28;20043;-57
2023/03/31 06:06:36;;;;;;;16.70;5.90;;;9.20;99.90;;;;;;5074396;28;20400;-57
2023/03/31 06:09:04;;;;;;;19.02;6.93;;;9.30;99.90;;;;;;5074815;28;20064;-56
2023/03/31 06:11:30;;;;;;;16.67;6.20;;;9.30;99.90;;;;;;5075498;28;20475;-56
2023/03/31 06:13:55;;;;;;;15.88;5.93;;;9.20;99.90;;;;;;5075378;28;20537;-57
2023/03/31 06:16:21;;;;;;;19.95;6.00;;;9.30;99.90;;;;;;5074942;28;20115;-56
2023/03/31 06:18:47;;;;;;;15.93;5.82;;;9.20;99.90;;;;;;5072938;28;20051;-56
2023/03/31 06:21:15;;;;;;;16.02;5.75;;;9.10;99.90;;;;;;5073067;28;20094;-56
2023/03/31 06:23:43;;;;;;;16.50;5.80;;;10.70;99.90;;;;;;5074156;28;20048;-56
2023/03/31 06:26:18;;;;;;;19.55;5.78;;;9.30;99.90;;;;;;5073441;28;20177;-56
2023/03/31 06:28:45;;;;;;;19.55;5.63;;;9.30;99.90;;;;;;5074590;28;20653;-57
2023/03/31 06:31:13;;;;;;;15.40;4.88;;;9.20;99.90;;;;;;5072462;28;20048;-55
2023/03/31 06:33:42;;;;;;;15.88;5.95;;;9.20;99.90;;;;;;5073301;28;20652;-56
2023/03/31 06:36:09;;;;;;;14.25;5.25;;;9.20;99.90;;;;;;5073283;28;20105;-57
2023/03/31 06:38:37;;;;;;;16.90;5.78;;;9.30;99.90;;;;;;5074432;28;20050;-57
2023/03/31 06:41:03;;;;;;;14.70;5.57;;;9.20;99.90;;;;;;5074129;28;20118;-59
2023/03/31 06:43:29;;;;;;;17.23;5.78;;;9.40;99.90;;;;;;5072727;28;20040;-57
2023/03/31 06:45:55;;;;;;;14.45;5.50;;;9.30;99.90;;;;;;5072149;28;20036;-56
2023/03/31 06:48:25;;;;;;;14.57;5.18;;;10.10;99.90;;;;;;5071596;28;20112;-57
2023/03/31 06:50:52;;;;;;;13.65;5.57;;;9.40;99.90;;;;;;5073428;28;20047;-57
2023/03/31 06:53:18;;;;;;;16.58;6.10;;;10.40;99.90;;;;;;5072738;28;20051;-57
2023/03/31 06:55:43;;;;;;;14.63;5.03;;;9.40;99.90;;;;;;5072725;28;20040;-57
2023/03/31 06:58:10;;;;;;;10.95;4.57;;;9.30;99.90;;;;;;5073777;28;20058;-56
2023/03/31 07:00:36;;;;;;;13.82;4.38;;;9.30;99.90;;;;;;5072991;28;20115;-57
2023/03/31 07:03:03;;;;;;;14.15;4.25;;;9.60;99.90;;;;;;5073268;28;20130;-57
2023/03/31 07:05:30;;;;;;;19.02;5.47;;;9.20;99.90;;;;;;5072789;28;20040;-56
2023/03/31 07:07:57;;;;;;;12.32;4.00;;;9.20;99.90;;;;;;5073937;28;20150;-57
2023/03/31 07:10:24;;;;;;;11.32;4.53;;;9.20;99.90;;;;;;5072687;28;20396;-57
2023/03/31 07:12:50;;;;;;;14.18;3.85;;;9.20;99.90;;;;;;5072571;28;20402;-57
2023/03/31 07:15:16;;;;;;;13.23;4.30;;;9.20;99.90;;;;;;5071718;28;20065;-57
2023/03/31 07:17:42;;;;;;;11.68;3.67;;;9.20;99.90;;;;;;5073931;28;20072;-57
2023/03/31 07:20:15;;;;;;;14.32;4.20;;;9.40;99.90;;;;;;5073411;28;20079;-57
2023/03/31 07:22:45;;;;;;;8.82;3.83;;;9.30;99.90;;;;;;5073155;28;20789;-56
2023/03/31 07:25:13;;;;;;;12.60;4.68;;;9.40;99.90;;;;;;5073385;28;20107;-57
2023/03/31 07:27:39;;;;;;;11.18;4.32;;;9.40;99.90;;;;;;5073982;28;20048;-57
2023/03/31 07:30:06;;;;;;;12.43;4.85;;;9.40;99.90;;;;;;5074035;28;20047;-57
2023/03/31 07:32:32;;;;;;;9.43;4.63;;;9.50;99.90;;;;;;5073392;28;20136;-57
2023/03/31 07:34:58;;;;;;;10.23;4.68;;;9.40;99.90;;;;;;5074223;28;20048;-57
2023/03/31 07:37:24;;;;;;;11.10;4.80;;;9.40;99.90;;;;;;5073036;28;20039;-57
2023/03/31 07:39:50;;;;;;;13.68;4.82;;;9.40;99.90;;;;;;5073800;28;20067;-57
2023/03/31 07:42:16;;;;;;;12.07;4.85;;;9.50;99.90;;;;;;5074680;28;20068;-57
2023/03/31 07:44:42;;;;;;;13.38;4.22;;;9.50;99.90;;;;;;5074436;28;20028;-57
2023/03/31 07:47:08;;;;;;;11.18;4.80;;;9.40;99.90;;;;;;5074057;28;20077;-56
2023/03/31 07:49:34;;;;;;;9.60;4.05;;;9.30;99.90;;;;;;5073610;28;20086;-57
2023/03/31 07:52:01;;;;;;;13.80;4.07;;;9.40;99.90;;;;;;5074124;28;20040;-57
2023/03/31 07:54:27;;;;;;;12.98;4.50;;;9.30;99.90;;;;;;5072947;28;20556;-57
2023/03/31 07:56:53;;;;;;;7.57;3.63;;;9.30;99.90;;;;;;5073024;28;20071;-56
2023/03/31 07:59:19;;;;;;;9.25;3.83;;;9.30;99.90;;;;;;5072761;28;20159;-55
2023/03/31 08:01:44;;;;;;;11.52;4.72;;;9.40;99.90;;;;;;5070392;28;20479;-57
2023/03/31 08:04:13;;;;;;;10.45;4.03;;;9.50;99.90;;;;;;5071602;28;20145;-57
2023/03/31 08:06:39;;;;;;;7.93;3.35;;;9.40;99.90;;;;;;5073047;28;20043;-57
2023/03/31 08:09:08;;;;;;;8.07;3.60;;;9.50;99.90;;;;;;5072546;28;20055;-56
2023/03/31 08:11:34;;;;;;;11.70;4.22;;;9.40;99.90;;;;;;5072683;28;20031;-57
2023/03/31 08:14:00;;;;;;;8.13;3.70;;;9.60;99.90;;;;;;5073154;28;20036;-56
2023/03/31 08:16:25;;;;;;;13.05;4.22;;;9.40;99.90;;;;;;5070999;28;20094;-57
2023/03/31 08:18:51;;;;;;;10.27;4.20;;;9.60;99.90;;;;;;5072076;28;20126;-57
2023/03/31 08:21:17;;;;;;;10.23;4.18;;;9.50;99.90;;;;;;5072549;28;20185;-56
2023/03/31 08:23:42;;;;;;;10.63;4.20;;;9.60;99.90;;;;;;5072929;28;20105;-57
2023/03/31 08:26:09;;;;;;;13.90;4.13;;;9.70;99.90;;;;;;5072154;28;20443;-56
2023/03/31 08:28:35;;;;;;;12.80;4.93;;;9.70;99.90;;;;;;5072472;28;20279;-57
2023/03/31 08:31:09;;;;;;;10.00;4.10;;;9.50;99.90;;;;;;5071111;28;20044;-56
2023/03/31 08:33:36;;;;;;;10.18;4.00;;;9.80;99.90;;;;;;5069697;28;20059;-57
2023/03/31 08:36:07;;;;;;;9.60;4.10;;;9.80;99.90;;;;;;5072481;28;20056;-56
2023/03/31 08:38:37;;;;;;;10.70;4.38;;;9.70;99.90;;;;;;5070769;28;20075;-57
2023/03/31 08:41:06;;;;;;;11.85;4.65;;;9.80;99.90;;;;;;5071986;28;20151;-57
2023/03/31 08:43:38;;;;;;;13.55;4.32;;;9.70;99.90;;;;;;5073657;28;20044;-56
2023/03/31 08:46:04;;;;;;;10.52;3.38;;;9.80;99.90;;;;;;5072641;28;20455;-57
2023/03/31 08:48:45;;;;;;;11.65;4.20;;;9.90;99.90;;;;;;5073682;28;20051;-56
2023/03/31 08:51:23;;;;;;;10.07;3.03;;;9.80;99.90;;;;;;5072185;28;20051;-57
2023/03/31 08:54:01;;;;;;;11.90;3.28;;;9.80;99.90;;;;;;5073535;28;20044;-57
2023/03/31 08:56:29;;;;;;;10.38;3.03;;;9.90;99.90;;;;;;5072858;28;20519;-56
2023/03/31 08:59:00;;;;;;;10.40;3.28;;;9.80;99.90;;;;;;5072560;28;20051;-57
2023/03/31 09:01:53;;;;;;;11.20;3.88;;;9.80;99.90;;;;;;5072969;28;20044;-56
2023/03/31 09:05:05;;;;;;;16.33;3.80;;;10.00;99.90;;;;;;5072548;28;20055;-57
2023/03/31 09:08:08;;;;;;;13.05;4.13;;;10.00;99.90;;;;;;5072026;28;20040;-57
2023/03/31 09:10:46;;;;;;;9.57;4.18;;;9.80;99.90;;;;;;5071425;28;20389;-56
2023/03/31 09:13:22;;;;;;;12.63;4.35;;;9.80;99.90;;;;;;5071866;28;20090;-57
2023/03/31 09:16:09;;;;;;;12.43;4.28;;;10.10;99.90;;;;;;5071930;28;20594;-55
2023/03/31 09:18:37;;;;;;;16.50;4.10;;;10.10;99.90;;;;;;5071828;28;20419;-57
2023/03/31 09:21:15;;;;;;;11.25;3.95;;;10.00;99.90;;;;;;5072588;28;20058;-56
2023/03/31 09:24:10;;;;;;;11.30;4.05;;;10.20;99.90;;;;;;5071374;28;20394;-56
2023/03/31 09:26:53;;;;;;;14.07;4.00;;;10.40;99.90;;;;;;5071348;28;20542;-57
2023/03/31 09:29:33;;;;;;;11.45;4.03;;;10.50;99.90;;;;;;5071494;28;20040;-56
2023/03/31 09:32:15;;;;;;;9.52;4.10;;;10.50;99.90;;;;;;5070903;28;20178;-56
2023/03/31 09:34:43;;;;;;;11.52;4.43;;;10.70;99.90;;;;;;5071431;28;20040;-56
2023/03/31 09:37:10;;;;;;;9.48;3.65;;;10.90;99.90;;;;;;5072378;28;20032;-56
2023/03/31 09:39:38;;;;;;;12.82;4.10;;;11.10;99.90;;;;;;5076567;28;20415;-56
2023/03/31 09:42:04;;;;;;;11.32;4.22;;;11.20;99.90;;;;;;5076511;28;20040;-56
2023/03/31 09:44:37;;;;;;;11.48;3.78;;;11.30;99.90;;;;;;5074813;28;20463;-56
2023/03/31 09:47:07;;;;;;;11.15;3.83;;;11.30;99.90;;;;;;5075524;28;20047;-56
2023/03/31 09:49:34;;;;;;;8.98;3.90;;;11.20;99.90;;;;;;5074209;28;20105;-57
2023/03/31 09:52:29;;;;;;;7.28;2.85;;;11.40;99.90;;;;;;5075384;28;20071;-56
2023/03/31 09:54:59;;;;;;;11.65;3.55;;;11.40;99.90;;;;;;5075988;28;20373;-57
2023/03/31 09:57:34;;;;;;;8.90;3.55;;;11.50;99.90;;;;;;5075554;28;20036;-56
2023/03/31 10:00:15;;;;;;;10.00;3.20;;;11.50;99.90;;;;;;5077107;28;20902;-56
2023/03/31 10:02:44;;;;;;;9.57;3.20;;;11.70;99.90;;;;;;5075901;28;20043;-56
2023/03/31 10:05:34;;;;;;;10.95;3.88;;;11.50;99.90;;;;;;5076092;28;20173;-56
2023/03/31 10:08:24;;;;;;;7.38;2.95;;;11.30;99.90;;;;;;5076532;28;20397;-56
2023/03/31 10:11:11;;;;;;;8.70;3.15;;;11.40;99.90;;;;;;5075254;28;21001;-57
2023/03/31 10:13:48;;;;;;;8.80;2.63;;;11.10;99.90;;;;;;5075323;28;20409;-56
2023/03/31 10:16:21;;;;;;;7.07;2.90;;;11.30;99.90;;;;;;5075395;28;20051;-57
2023/03/31 10:18:48;;;;;;;9.68;2.88;;;11.20;99.90;;;;;;5075228;28;20087;-56
2023/03/31 10:21:25;;;;;;;11.00;3.03;;;12.80;99.90;;;;;;5074513;28;20040;-56
2023/03/31 10:23:53;;;;;;;7.88;3.20;;;11.20;99.90;;;;;;5074669;28;20055;-56
2023/03/31 10:26:22;;;;;;;8.18;2.80;;;11.20;99.90;;;;;;5074670;28;20039;-56
2023/03/31 10:28:51;;;;;;;10.10;3.30;;;11.30;99.90;;;;;;5074485;28;20083;-57
2023/03/31 10:31:34;;;;;;;8.07;3.10;;;11.30;99.90;;;;;;5073227;28;20040;-57
2023/03/31 10:34:11;;;;;;;10.70;3.28;;;11.20;99.90;;;;;;5071698;28;20324;-56
2023/03/31 10:36:38;;;;;;;10.63;3.70;;;11.30;99.90;;;;;;5073961;28;20036;-56
2023/03/31 10:39:06;;;;;;;8.00;3.33;;;9.40;99.90;;;;;;5073428;28;20524;-57
2023/03/31 10:41:32;;;;;;;11.75;3.72;;;11.30;99.90;;;;;;5073647;28;20083;-56
2023/03/31 10:44:03;;;;;;;8.75;3.53;;;11.60;99.90;;;;;;5074257;28;20154;-56
2023/03/31 10:47:04;;;;;;;7.78;2.90;;;11.50;99.90;;;;;;5071531;28;20040;-57
2023/03/31 10:49:35;;;;;;;9.93;3.10;;;11.60;99.90;;;;;;5067654;28;20052;-57
2023/03/31 10:52:01;;;;;;;8.05;2.60;;;11.70;99.90;;;;;;5072455;28;20040;-55
2023/03/31 10:54:27;;;;;;;10.07;3.05;;;12.00;99.90;;;;;;5071922;28;20061;-56
2023/03/31 10:57:00;;;;;;;10.27;2.70;;;12.00;99.90;;;;;;5074234;28;20574;-56
2023/03/31 11:00:04;;;;;;;10.20;2.90;;;11.90;99.90;;;;;;5073801;28;20040;-56
2023/03/31 11:02:39;;;;;;;9.38;2.88;;;12.20;99.90;;;;;;5073785;28;20134;-56
2023/03/31 11:05:21;;;;;;;9.40;2.97;;;12.30;99.90;;;;;;5073825;28;20047;-55
2023/03/31 11:08:07;;;;;;;7.87;2.63;;;12.70;99.90;;;;;;5073589;28;20393;-56
2023/03/31 11:10:44;;;;;;;8.60;2.50;;;12.70;99.90;;;;;;5072016;28;20123;-56
2023/03/31 11:13:32;;;;;;;8.80;2.90;;;12.70;99.90;;;;;;5073502;28;20601;-55
2023/03/31 11:16:15;;;;;;;7.38;2.13;;;12.60;99.90;;;;;;5073002;28;20272;-56
2023/03/31 11:18:49;;;;;;;12.43;3.80;;;12.70;99.90;;;;;;5072522;28;20075;-56
2023/03/31 11:21:40;;;;;;;8.88;2.25;;;13.00;99.90;;;;;;5072287;28;20135;-56
2023/03/31 11:24:34;;;;;;;8.15;2.10;;;13.00;99.90;;;;;;5071086;28;20040;-56
2023/03/31 11:27:15;;;;;;;11.65;2.63;;;13.10;99.90;;;;;;5072729;28;20135;-56
2023/03/31 11:30:16;;;;;;;10.50;3.10;;;13.10;99.90;;;;;;5073414;28;20044;-55
2023/03/31 11:33:23;;;;;;;8.23;2.25;;;12.50;99.90;;;;;;5073302;28;20535;-56
2023/03/31 11:36:07;;;;;;;12.32;2.80;;;12.80;99.90;;;;;;5073419;28;20389;-56
2023/03/31 11:39:15;;;;;;;16.25;3.50;;;12.80;99.90;;;;;;5072597;28;20051;-56
2023/03/31 11:42:01;;;;;;;10.00;2.50;;;13.00;99.90;;;;;;5073179;28;21038;-56
2023/03/31 11:44:35;;;;;;;9.10;2.53;;;12.70;99.90;;;;;;5072942;28;20071;-56
2023/03/31 11:47:15;;;;;;;6.25;2.30;;;12.70;99.90;;;;;;5072456;28;20052;-56
2023/03/31 11:49:47;;;;;;;7.82;2.25;;;12.80;99.90;;;;;;5071304;28;20047;-56
2023/03/31 11:52:21;;;;;;;8.07;2.30;;;13.00;99.90;;;;;;5071714;28;20043;-56
2023/03/31 11:55:14;;;;;;;9.13;2.30;;;12.70;99.90;;;;;;5072088;28;20124;-56
2023/03/31 11:57:55;;;;;;;8.07;2.00;;;12.50;99.90;;;;;;5072442;28;20052;-55
2023/03/31 12:00:27;;;;;;;10.88;2.47;;;12.40;99.90;;;;;;5071049;28;20067;-56
2023/03/31 12:03:06;;;;;;;9.82;3.08;;;12.10;99.90;;;;;;5069835;28;20052;-56
2023/03/31 12:05:36;;;;;;;10.45;2.30;;;12.00;99.90;;;;;;5073460;28;20048;-56
2023/03/31 12:08:04;;;;;;;12.00;3.40;;;12.10;99.90;;;;;;5073361;28;20039;-56
2023/03/31 12:10:42;;;;;;;9.65;2.58;;;13.40;99.90;;;;;;5072318;28;20573;-55
2023/03/31 12:13:33;;;;;;;12.43;2.85;;;12.20;99.90;;;;;;5071737;28;20168;-56
2023/03/31 12:16:16;;;;;;;7.10;2.72;;;12.20;99.90;;;;;;5072152;28;20165;-56
2023/03/31 12:19:03;;;;;;;13.15;3.17;;;12.20;99.90;;;;;;5071192;28;20614;-56
2023/03/31 12:21:31;;;;;;;9.82;2.80;;;12.20;99.90;;;;;;5072878;28;20082;-56
2023/03/31 12:23:57;;;;;;;8.38;3.42;;;12.20;99.90;;;;;;5072503;28;20036;-56
2023/03/31 12:26:30;;;;;;;11.75;3.35;;;12.20;99.90;;;;;;5071179;28;20039;-56
2023/03/31 12:29:03;;;;;;;9.90;3.08;;;12.30;99.90;;;;;;5071688;28;20055;-57
2023/03/31 12:31:31;;;;;;;10.05;3.22;;;12.30;99.90;;;;;;5071367;28;20051;-56
2023/03/31 12:34:13;;;;;;;13.05;3.42;;;12.20;99.90;;;;;;5070904;28;20055;-56
2023/03/31 12:37:00;;;;;;;13.27;3.95;;;12.60;99.90;;;;;;5072207;28;20063;-56
2023/03/31 12:40:05;;;;;;;11.43;2.90;;;12.50;99.90;;;;;;5072134;28;20052;-56
2023/03/31 12:43:04;;;;;;;14.00;3.20;;;12.70;99.90;;;;;;5072783;28;20133;-56
2023/03/31 12:45:51;;;;;;;13.00;2.92;;;10.90;99.90;;;;;;5072167;28;20396;-55
2023/03/31 12:48:30;;;;;;;10.05;3.05;;;12.80;99.90;;;;;;5071530;28;20048;-56
2023/03/31 12:51:15;;;;;;;15.40;2.85;;;12.60;99.90;;;;;;5071370;28;20467;-55
2023/03/31 12:54:23;;;;;;;14.00;3.33;;;12.90;99.90;;;;;;5071903;28;20047;-55
2023/03/31 12:57:22;;;;;;;14.27;2.78;;;12.80;99.90;;;;;;5063720;28;20064;-56
2023/03/31 13:00:12;;;;;;;16.35;3.47;;;13.10;99.90;;;;;;5071861;28;20040;-56
2023/03/31 13:02:39;;;;;;;11.40;2.90;;;12.80;99.90;;;;;;5072405;28;20048;-56
2023/03/31 13:05:36;;;;;;;10.15;2.90;;;12.80;99.90;;;;;;5071799;28;20048;-56
2023/03/31 13:08:09;;;;;;;11.77;2.65;;;12.80;99.90;;;;;;5071705;28;20044;-56
2023/03/31 13:10:58;;;;;;;11.88;3.25;;;12.90;99.90;;;;;;5071304;28;20373;-56
2023/03/31 13:13:24;;;;;;;12.40;2.85;;;12.20;99.90;;;;;;5089867;28;20044;-57
2023/03/31 13:15:53;;;;;;;9.82;2.63;;;13.10;99.90;;;;;;5075639;28;20058;-56